createdAt,value
2023-04-14T00:02:53.085Z,1.53
2023-04-14T00:07:56.575Z,1.73
2023-04-14T00:13:01.529Z,2.03
2023-04-14T00:18:08.547Z,1.40
2023-04-14T00:23:11.962Z,1.70
2023-04-14T00:28:16.508Z,1.80
2023-04-14T00:33:21.991Z,2.53
2023-04-14T00:38:25.589Z,2.60
2023-04-14T00:43:31.196Z,2.70
2023-04-14T00:48:34.538Z,2.60
2023-04-14T00:53:37.946Z,3.20
2023-04-14T00:58:43.015Z,3.87
2023-04-14T01:03:46.899Z,2.30
2023-04-14T01:08:50.697Z,2.77
2023-04-14T01:14:03.676Z,2.80
2023-04-14T01:19:15.173Z,1.70
2023-04-14T01:24:31.886Z,1.53
2023-04-14T01:29:42.680Z,2.00
2023-04-14T01:34:50.176Z,1.50
2023-04-14T01:39:55.515Z,1.63
2023-04-14T01:45:02.430Z,1.67
2023-04-14T01:50:10.963Z,1.90
2023-04-14T01:55:16.576Z,1.73
2023-04-14T02:00:20.633Z,1.60
2023-04-14T02:05:26.546Z,1.63
2023-04-14T02:10:30.474Z,1.90
2023-04-14T02:15:34.647Z,1.90
2023-04-14T02:20:43.464Z,2.57
2023-04-14T02:25:51.055Z,2.47
2023-04-14T02:30:55.530Z,2.50
2023-04-14T02:36:02.459Z,1.87
2023-04-14T02:41:08.737Z,2.00
2023-04-14T02:46:15.672Z,2.80
2023-04-14T02:51:20.818Z,3.17
2023-04-14T02:56:24.929Z,2.40
2023-04-14T03:01:30.432Z,3.20
2023-04-14T03:06:36.574Z,3.20
2023-04-14T03:11:40.043Z,3.10
2023-04-14T03:16:44.007Z,2.43
2023-04-14T03:21:49.679Z,2.30
2023-04-14T03:26:56.119Z,3.00
2023-04-14T03:32:02.272Z,2.47
2023-04-14T03:37:07.375Z,2.20
2023-04-14T03:42:12.125Z,2.00
2023-04-14T03:47:16.417Z,2.33
2023-04-14T03:52:22.941Z,2.77
2023-04-14T03:57:27.383Z,2.23
2023-04-14T04:02:31.158Z,2.73
2023-04-14T04:07:36.452Z,2.63
2023-04-14T04:12:40.137Z,3.17
2023-04-14T04:17:45.264Z,3.30
2023-04-14T04:22:52.090Z,3.03
2023-04-14T04:27:55.778Z,2.70
2023-04-14T04:32:59.225Z,2.80
2023-04-14T04:38:05.415Z,2.60
2023-04-14T04:43:09.481Z,2.80
2023-04-14T04:48:13.061Z,3.47
2023-04-14T04:53:21.392Z,3.03
2023-04-14T04:58:24.819Z,3.57
2023-04-14T05:03:28.203Z,2.63
2023-04-14T05:08:32.958Z,2.93
2023-04-14T05:13:36.243Z,3.50
2023-04-14T05:18:39.494Z,2.70
2023-04-14T05:23:44.882Z,3.57
2023-04-14T05:28:48.199Z,3.20
2023-04-14T05:33:51.518Z,2.83
2023-04-14T05:38:56.344Z,3.73
2023-04-14T05:44:00.062Z,3.33
2023-04-14T05:49:04.995Z,3.33
2023-04-14T05:54:09.735Z,4.17
2023-04-14T05:59:13.233Z,4.90
2023-04-14T06:04:17.229Z,4.27
2023-04-14T06:09:21.967Z,9.20
2023-04-14T06:14:25.271Z,6.63
2023-04-14T06:19:28.601Z,6.53
2023-04-14T06:24:34.586Z,6.00
2023-04-14T06:29:37.904Z,6.70
2023-04-14T06:34:41.299Z,7.37
2023-04-14T06:39:46.664Z,6.43
2023-04-14T06:44:50.271Z,7.20
2023-04-14T06:49:53.836Z,6.70
2023-04-14T06:54:58.446Z,5.77
2023-04-14T07:00:01.649Z,5.43
2023-04-14T07:05:05.726Z,5.67
2023-04-14T07:10:11.057Z,6.37
2023-04-14T07:15:15.430Z,4.63
2023-04-14T07:20:18.747Z,4.90
2023-04-14T07:25:23.526Z,4.77
2023-04-14T07:30:27.544Z,4.60
2023-04-14T07:35:31.221Z,4.50
2023-04-14T07:40:36.809Z,4.00
2023-04-14T07:45:41.551Z,4.47
2023-04-14T07:50:45.770Z,4.03
2023-04-14T07:55:51.025Z,4.00
2023-04-14T08:00:54.463Z,4.60
2023-04-14T08:05:58.347Z,4.33
2023-04-14T08:11:03.265Z,4.50
2023-04-14T08:16:06.841Z,3.07
2023-04-14T08:21:10.333Z,4.53
2023-04-14T08:26:15.101Z,3.30
2023-04-14T08:31:18.401Z,2.70
2023-04-14T08:36:21.723Z,3.23
2023-04-14T08:41:26.758Z,2.93
2023-04-14T08:46:31.195Z,2.90
2023-04-14T08:51:36.094Z,2.90
2023-04-14T08:56:41.492Z,2.77
2023-04-14T09:01:46.366Z,3.23
2023-04-14T09:06:49.724Z,2.43
2023-04-14T09:11:54.501Z,2.47
2023-04-14T09:16:57.867Z,2.53
2023-04-14T09:22:01.394Z,3.57
2023-04-14T09:27:06.850Z,3.10
2023-04-14T09:32:11.849Z,3.27
2023-04-14T09:37:15.055Z,2.83
2023-04-14T09:42:20.139Z,2.43
2023-04-14T09:47:24.734Z,2.70
2023-04-14T09:52:37.700Z,2.63
2023-04-14T09:57:44.091Z,2.47
2023-04-14T10:02:51.136Z,2.13
2023-04-14T10:07:54.647Z,2.70
2023-04-14T10:13:00.716Z,2.50
2023-04-14T10:18:04.141Z,2.40
2023-04-14T10:23:08.919Z,2.27
2023-04-14T10:28:14.037Z,1.93
2023-04-14T10:33:17.268Z,2.57
2023-04-14T10:38:20.672Z,1.90
2023-04-14T10:43:28.775Z,2.50
2023-04-14T10:48:34.515Z,2.60
2023-04-14T10:53:39.024Z,2.03
2023-04-14T10:58:54.950Z,2.50
2023-04-14T11:03:58.866Z,1.97
2023-04-14T11:09:02.999Z,1.90
2023-04-14T11:14:14.062Z,2.17
2023-04-14T11:19:17.517Z,2.40
2023-04-14T11:24:21.305Z,2.27
2023-04-14T11:29:26.225Z,2.30
2023-04-14T11:34:30.027Z,2.40
2023-04-14T11:39:35.580Z,2.00
2023-04-14T11:44:40.362Z,2.30
2023-04-14T11:49:43.587Z,2.10
2023-04-14T11:54:47.075Z,1.70
2023-04-14T11:59:51.932Z,1.90
2023-04-14T12:04:55.662Z,2.57
2023-04-14T12:09:59.149Z,2.00
2023-04-14T12:15:05.468Z,2.00
2023-04-14T12:20:15.732Z,2.10
2023-04-14T12:25:19.045Z,2.23
2023-04-14T12:30:24.557Z,2.13
2023-04-14T12:35:34.830Z,2.30
2023-04-14T12:40:38.774Z,2.00
2023-04-14T12:45:43.864Z,1.97
2023-04-14T12:50:47.356Z,2.27
2023-04-14T12:56:04.588Z,2.17
2023-04-14T13:01:09.649Z,2.23
2023-04-14T13:06:13.386Z,2.30
2023-04-14T13:11:18.116Z,1.90
2023-04-14T13:16:26.575Z,2.00
2023-04-14T13:21:31.215Z,2.20
2023-04-14T13:26:34.579Z,2.13
2023-04-14T13:31:39.384Z,2.33
2023-04-14T13:36:42.792Z,1.50
2023-04-14T13:41:46.122Z,1.50
2023-04-14T13:46:52.040Z,1.60
2023-04-14T13:51:55.313Z,1.40
2023-04-14T13:56:58.806Z,1.27
2023-04-14T14:02:04.585Z,1.10
2023-04-14T14:07:08.187Z,1.30
2023-04-14T14:12:12.511Z,0.97
2023-04-14T14:17:17.698Z,1.50
2023-04-14T14:22:20.966Z,1.10
2023-04-14T14:27:24.260Z,1.27
2023-04-14T14:32:29.076Z,0.90
2023-04-14T14:37:32.357Z,1.27
2023-04-14T14:42:35.877Z,1.20
2023-04-14T14:47:40.719Z,1.13
2023-04-14T14:52:43.992Z,1.57
2023-04-14T14:57:47.404Z,2.57
2023-04-14T15:02:53.088Z,1.73
2023-04-14T15:07:56.386Z,1.80
2023-04-14T15:12:59.635Z,1.60
2023-04-14T15:18:05.303Z,1.40
2023-04-14T15:23:08.709Z,2.40
2023-04-14T15:28:12.991Z,2.60
2023-04-14T15:33:17.681Z,2.23
2023-04-14T15:38:21.094Z,2.43
2023-04-14T15:43:24.955Z,2.30
2023-04-14T15:48:30.395Z,2.90
2023-04-14T15:53:33.738Z,2.90
2023-04-14T15:58:37.129Z,3.17
2023-04-14T16:03:42.145Z,4.57
2023-04-14T16:08:45.484Z,2.60
2023-04-14T16:13:48.986Z,3.73
2023-04-14T16:18:53.971Z,2.47
2023-04-14T16:23:57.315Z,2.40
2023-04-14T16:29:00.707Z,2.40
2023-04-14T16:34:05.353Z,2.10
2023-04-14T16:39:08.754Z,1.93
2023-04-14T16:44:12.179Z,2.10
2023-04-14T16:49:17.490Z,2.40
2023-04-14T16:54:20.795Z,2.83
2023-04-14T16:59:24.235Z,2.30
2023-04-14T17:04:29.092Z,3.13
2023-04-14T17:09:33.439Z,2.60
2023-04-14T17:14:37.292Z,2.47
2023-04-14T17:19:42.100Z,2.63
2023-04-14T17:24:45.815Z,2.57
2023-04-14T17:29:49.189Z,2.33
2023-04-14T17:34:53.833Z,2.40
2023-04-14T17:39:57.155Z,2.97
2023-04-14T17:45:00.779Z,3.30
2023-04-14T17:50:05.795Z,3.67
2023-04-14T17:55:10.421Z,3.67
2023-04-14T18:00:14.721Z,2.80
2023-04-14T18:05:19.717Z,2.20
2023-04-14T18:10:22.974Z,2.90
2023-04-14T18:15:27.103Z,14.10
2023-04-14T18:20:32.069Z,4.03
2023-04-14T18:30:42.441Z,3.47
2023-04-14T18:35:51.896Z,3.17
2023-04-14T18:40:55.235Z,2.80
2023-04-14T18:45:58.536Z,3.30
2023-04-14T18:51:08.425Z,3.33
2023-04-14T18:56:12.154Z,2.67
2023-04-14T19:01:15.596Z,2.13
2023-04-14T19:06:20.841Z,2.40
2023-04-14T19:11:24.260Z,2.83
2023-04-14T19:16:27.927Z,2.03
2023-04-14T19:21:32.728Z,2.83
2023-04-14T19:26:40.563Z,2.00
2023-04-14T19:31:43.962Z,1.70
2023-04-14T19:36:48.694Z,1.93
2023-04-14T19:41:51.942Z,1.77
2023-04-14T19:46:55.798Z,1.60
2023-04-14T19:52:00.824Z,2.57
2023-04-14T19:57:04.245Z,1.90
2023-04-14T20:02:10.633Z,2.47
2023-04-14T20:07:15.422Z,1.90
2023-04-14T20:12:19.385Z,1.80
2023-04-14T20:17:23.464Z,2.13
2023-04-14T20:22:28.141Z,2.27
2023-04-14T20:27:31.717Z,2.40
2023-04-14T20:32:35.804Z,2.00
2023-04-14T20:37:40.704Z,2.50
2023-04-14T20:42:45.988Z,2.40
2023-04-14T20:47:49.690Z,2.70
2023-04-14T20:52:54.449Z,2.73
2023-04-14T20:57:58.212Z,3.03
2023-04-14T21:03:01.745Z,2.80
2023-04-14T21:08:06.689Z,5.77
2023-04-14T21:15:40.357Z,3.77
2023-04-14T21:18:33.507Z,5.30
2023-04-14T21:23:41.459Z,4.80
2023-04-14T21:28:44.547Z,3.50
2023-04-14T21:33:47.865Z,2.40
2023-04-14T21:38:52.579Z,3.67
2023-04-14T21:43:55.785Z,3.63
2023-04-14T21:48:59.234Z,4.60
2023-04-14T21:54:05.030Z,4.50
2023-04-14T21:59:08.387Z,3.50
2023-04-14T22:04:19.044Z,4.23
2023-04-14T22:09:30.129Z,4.33
2023-04-14T22:14:33.605Z,4.87
2023-04-14T22:19:37.020Z,4.27
2023-04-14T22:24:41.854Z,4.20
2023-04-14T22:29:45.198Z,3.70
2023-04-14T22:34:48.521Z,3.87
2023-04-14T22:39:53.281Z,3.07
2023-04-14T22:44:56.634Z,3.13
2023-04-14T22:50:00.206Z,3.00
2023-04-14T22:55:04.905Z,2.73
2023-04-14T23:00:11.638Z,3.13
2023-04-14T23:05:15.213Z,3.37
2023-04-14T23:10:20.311Z,3.10
2023-04-14T23:15:24.476Z,2.77
2023-04-14T23:20:27.821Z,3.10
2023-04-14T23:25:32.680Z,3.30
2023-04-14T23:30:36.140Z,3.13
2023-04-14T23:35:40.285Z,3.43
2023-04-14T23:40:44.999Z,3.40
2023-04-14T23:45:48.229Z,3.90
2023-04-14T23:50:59.546Z,3.70
2023-04-14T23:56:10.378Z,3.30
